createdAt,value
2017-04-14T00:00:24.320Z,6.79
2017-04-14T00:01:22.165Z,6.33
2017-04-14T00:02:20.142Z,6.47
2017-04-14T00:03:17.947Z,7.37
2017-04-14T00:04:15.905Z,7.02
2017-04-14T00:05:14.619Z,5.69
2017-04-14T00:06:12.436Z,7.23
2017-04-14T00:07:10.340Z,7.46
2017-04-14T00:08:08.197Z,6.77
2017-04-14T00:09:06.104Z,7.35
2017-04-14T00:10:04.116Z,6.13
2017-04-14T00:11:01.964Z,7.07
2017-04-14T00:11:59.861Z,6.40
2017-04-14T00:12:57.680Z,6.67
2017-04-14T00:13:55.517Z,7.00
2017-04-14T00:14:53.372Z,8.04
2017-04-14T00:15:51.225Z,6.63
2017-04-14T00:16:49.105Z,6.97
2017-04-14T00:17:47.009Z,7.33
2017-04-14T00:18:44.817Z,7.32
2017-04-14T00:19:42.623Z,7.98
2017-04-14T00:20:40.424Z,8.65
2017-04-14T00:21:38.216Z,7.77
2017-04-14T00:22:36.438Z,6.70
2017-04-14T00:23:34.325Z,7.24
2017-04-14T00:24:32.161Z,7.05
2017-04-14T00:25:30.068Z,7.60
2017-04-14T00:26:27.888Z,7.77
2017-04-14T00:27:25.828Z,6.77
2017-04-14T00:28:23.687Z,7.42
2017-04-14T00:29:21.537Z,7.20
2017-04-14T00:30:19.439Z,6.97
2017-04-14T00:31:17.320Z,7.37
2017-04-14T00:32:15.389Z,8.46
2017-04-14T00:33:13.308Z,7.28
2017-04-14T00:34:11.236Z,7.08
2017-04-14T00:35:09.420Z,7.03
2017-04-14T00:36:07.307Z,7.27
2017-04-14T00:37:05.268Z,7.18
2017-04-14T00:38:03.385Z,7.14
2017-04-14T00:39:01.513Z,7.21
2017-04-14T00:39:59.461Z,7.42
2017-04-14T00:40:57.457Z,8.30
2017-04-14T00:41:55.420Z,7.00
2017-04-14T00:42:53.234Z,6.48
2017-04-14T00:43:51.277Z,7.20
2017-04-14T00:44:49.087Z,7.57
2017-04-14T00:45:46.995Z,7.18
2017-04-14T00:46:44.841Z,7.63
2017-04-14T00:47:42.937Z,7.40
2017-04-14T00:48:40.759Z,7.32
2017-04-14T00:49:38.608Z,8.40
2017-04-14T00:50:36.421Z,8.15
2017-04-14T00:51:34.209Z,6.82
2017-04-14T00:52:32.142Z,7.94
2017-04-14T00:53:30.036Z,8.57
2017-04-14T00:54:27.825Z,7.74
2017-04-14T00:55:25.637Z,7.05
2017-04-14T00:56:23.453Z,7.30
2017-04-14T00:57:21.413Z,8.18
2017-04-14T00:58:19.250Z,7.38
2017-04-14T00:59:17.146Z,8.12
2017-04-14T01:00:14.988Z,7.17
2017-04-14T01:01:12.960Z,8.37
2017-04-14T01:02:10.972Z,7.11
2017-04-14T01:03:08.780Z,7.19
2017-04-14T01:04:06.616Z,7.65
2017-04-14T01:05:04.465Z,6.90
2017-04-14T01:06:02.301Z,7.33
2017-04-14T01:07:00.169Z,7.41
2017-04-14T01:07:58.003Z,8.29
2017-04-14T01:08:55.939Z,7.14
2017-04-14T01:09:54.313Z,8.99
2017-04-14T01:10:52.247Z,7.63
2017-04-14T01:11:50.173Z,8.04
2017-04-14T01:12:48.213Z,7.49
2017-04-14T01:13:46.052Z,7.92
2017-04-14T01:14:43.899Z,8.03
2017-04-14T01:15:41.748Z,8.37
2017-04-14T01:16:39.606Z,7.43
2017-04-14T01:17:37.698Z,8.29
2017-04-14T01:18:35.547Z,8.27
2017-04-14T01:19:33.885Z,8.15
2017-04-14T01:20:31.873Z,8.33
2017-04-14T01:21:29.810Z,6.54
2017-04-14T01:22:27.676Z,8.22
2017-04-14T01:23:25.593Z,7.68
2017-04-14T01:24:23.416Z,7.90
2017-04-14T01:25:21.260Z,8.98
2017-04-14T01:26:19.095Z,7.84
2017-04-14T01:27:17.133Z,9.63
2017-04-14T01:28:14.935Z,7.77
2017-04-14T01:29:12.840Z,8.16
2017-04-14T01:30:10.711Z,8.73
2017-04-14T01:31:08.526Z,8.63
2017-04-14T01:32:06.507Z,9.81
2017-04-14T01:33:04.344Z,8.41
2017-04-14T01:34:02.206Z,7.94
2017-04-14T01:35:00.110Z,9.37
2017-04-14T01:35:58.104Z,7.87
2017-04-14T01:36:55.940Z,8.94
2017-04-14T01:37:53.768Z,8.50
2017-04-14T01:38:51.645Z,10.50
2017-04-14T01:39:49.607Z,7.97
2017-04-14T01:40:47.476Z,8.27
2017-04-14T01:41:45.319Z,8.17
2017-04-14T01:42:43.246Z,8.19
2017-04-14T01:43:41.112Z,8.50
2017-04-14T01:44:38.969Z,8.79
2017-04-14T01:45:36.862Z,8.69
2017-04-14T01:46:34.684Z,9.10
2017-04-14T01:47:32.696Z,9.17
2017-04-14T01:48:30.568Z,8.83
2017-04-14T01:49:28.435Z,9.69
2017-04-14T01:50:26.275Z,9.51
2017-04-14T01:51:24.132Z,9.91
2017-04-14T01:52:22.086Z,9.51
2017-04-14T01:53:19.927Z,10.72
2017-04-14T01:54:17.823Z,10.34
2017-04-14T01:55:15.625Z,10.47
2017-04-14T01:56:13.658Z,9.83
2017-04-14T01:57:11.561Z,11.16
2017-04-14T01:58:09.410Z,9.53
2017-04-14T01:59:07.404Z,10.37
2017-04-14T02:00:05.280Z,10.51
2017-04-14T02:01:03.266Z,10.67
2017-04-14T02:02:01.135Z,10.47
2017-04-14T02:02:58.954Z,10.00
2017-04-14T02:03:56.820Z,10.70
2017-04-14T02:04:54.660Z,10.18
2017-04-14T02:05:52.615Z,9.20
2017-04-14T02:06:50.486Z,10.18
2017-04-14T02:07:48.405Z,9.78
2017-04-14T02:08:46.270Z,9.63
2017-04-14T02:09:44.151Z,8.96
2017-04-14T02:10:42.105Z,10.65
2017-04-14T02:11:39.984Z,8.80
2017-04-14T02:12:37.828Z,9.44
2017-04-14T02:13:35.660Z,10.06
2017-04-14T02:14:33.553Z,9.59
2017-04-14T02:15:31.399Z,10.92
2017-04-14T02:16:29.337Z,10.02
2017-04-14T02:17:27.189Z,9.63
2017-04-14T02:18:25.052Z,9.84
2017-04-14T02:19:22.888Z,10.08
2017-04-14T02:20:20.711Z,9.91
2017-04-14T02:21:18.654Z,9.83
2017-04-14T02:22:16.481Z,10.43
2017-04-14T02:23:14.432Z,10.52
2017-04-14T02:24:12.356Z,10.05
2017-04-14T02:25:10.196Z,10.37
2017-04-14T02:26:08.289Z,9.83
2017-04-14T02:27:06.116Z,10.60
2017-04-14T02:28:03.976Z,10.43
2017-04-14T02:29:01.819Z,9.58
2017-04-14T02:29:59.714Z,9.63
2017-04-14T02:30:57.530Z,9.42
2017-04-14T02:31:55.360Z,10.53
2017-04-14T02:32:53.343Z,10.72
2017-04-14T02:33:51.217Z,10.43
2017-04-14T02:34:49.133Z,11.30
2017-04-14T02:35:47.019Z,10.15
2017-04-14T02:36:44.921Z,9.97
2017-04-14T02:37:42.723Z,10.30
2017-04-14T02:38:40.521Z,8.50
2017-04-14T02:39:38.416Z,8.53
2017-04-14T02:40:36.275Z,9.75
2017-04-14T02:41:34.199Z,11.20
2017-04-14T02:42:32.028Z,10.02
2017-04-14T02:43:29.981Z,9.53
2017-04-14T02:44:27.977Z,10.40
2017-04-14T02:45:25.802Z,11.77
2017-04-14T02:46:23.616Z,11.27
2017-04-14T02:47:21.467Z,10.87
2017-04-14T02:48:19.416Z,10.35
2017-04-14T02:49:17.280Z,10.25
2017-04-14T02:50:15.231Z,10.73
2017-04-14T02:51:13.100Z,9.10
2017-04-14T02:52:10.948Z,9.57
2017-04-14T02:53:08.802Z,10.30
2017-04-14T02:54:06.684Z,9.47
2017-04-14T02:55:04.595Z,10.68
2017-04-14T02:56:02.400Z,11.02
2017-04-14T02:57:00.555Z,9.63
2017-04-14T02:57:58.431Z,9.68
2017-04-14T02:58:56.293Z,10.57
2017-04-14T02:59:54.169Z,10.18
2017-04-14T03:00:52.128Z,11.98
2017-04-14T03:01:49.985Z,11.40
2017-04-14T03:02:47.813Z,11.75
2017-04-14T03:03:45.648Z,11.95
2017-04-14T03:04:43.504Z,10.75
2017-04-14T03:05:41.307Z,12.00
2017-04-14T03:06:39.252Z,9.83
2017-04-14T03:07:37.116Z,11.45
2017-04-14T03:08:35.148Z,11.27
2017-04-14T03:09:33.011Z,11.77
2017-04-14T03:10:30.869Z,11.02
2017-04-14T03:11:28.787Z,11.50
2017-04-14T03:12:26.631Z,11.25
2017-04-14T03:13:24.460Z,11.75
2017-04-14T03:14:22.289Z,11.60
2017-04-14T03:15:20.173Z,11.35
2017-04-14T03:16:18.019Z,11.13
2017-04-14T03:17:15.935Z,11.73
2017-04-14T03:18:13.796Z,11.88
2017-04-14T03:19:11.687Z,12.10
2017-04-14T03:20:09.686Z,11.78
2017-04-14T03:21:07.529Z,12.30
2017-04-14T03:22:05.363Z,11.43
2017-04-14T03:23:03.218Z,10.86
2017-04-14T03:24:01.151Z,12.50
2017-04-14T03:24:59.009Z,12.78
2017-04-14T03:25:56.837Z,10.53
2017-04-14T03:26:54.800Z,11.00
2017-04-14T03:27:52.635Z,14.01
2017-04-14T03:28:50.474Z,12.17
2017-04-14T03:29:48.361Z,12.53
2017-04-14T03:30:46.269Z,13.11
2017-04-14T03:31:44.056Z,11.35
2017-04-14T03:32:42.035Z,11.83
2017-04-14T03:33:39.912Z,12.28
2017-04-14T03:34:37.829Z,11.75
2017-04-14T03:35:35.740Z,10.85
2017-04-14T03:36:33.588Z,12.28
2017-04-14T03:37:31.388Z,10.75
2017-04-14T03:38:29.231Z,11.37
2017-04-14T03:39:27.160Z,11.78
2017-04-14T03:40:24.998Z,11.10
2017-04-14T03:41:22.855Z,11.40
2017-04-14T03:42:20.829Z,12.55
2017-04-14T03:43:18.697Z,11.91
2017-04-14T03:44:16.578Z,11.57
2017-04-14T03:45:14.415Z,12.55
2017-04-14T03:46:12.393Z,11.83
2017-04-14T03:47:10.204Z,10.88
2017-04-14T03:48:08.015Z,13.53
2017-04-14T03:49:05.965Z,12.08
2017-04-14T03:50:03.875Z,11.78
2017-04-14T03:51:01.771Z,13.02
2017-04-14T03:51:59.600Z,10.65
2017-04-14T03:52:57.475Z,11.67
2017-04-14T03:53:55.340Z,12.47
2017-04-14T03:54:53.178Z,12.58
2017-04-14T03:55:51.126Z,12.28
2017-04-14T03:56:49.013Z,12.47
2017-04-14T03:57:46.941Z,12.85
2017-04-14T03:58:44.791Z,13.03
2017-04-14T03:59:42.673Z,10.27
2017-04-14T04:00:40.504Z,12.80
2017-04-14T04:01:38.352Z,13.06
2017-04-14T04:02:36.296Z,13.27
2017-04-14T04:03:34.133Z,12.82
2017-04-14T04:04:32.088Z,13.37
2017-04-14T04:05:29.920Z,12.65
2017-04-14T04:06:27.796Z,14.05
2017-04-14T04:07:25.692Z,12.30
2017-04-14T04:08:23.617Z,12.40
2017-04-14T04:09:21.492Z,13.30
2017-04-14T04:10:19.366Z,14.25
2017-04-14T04:11:17.320Z,12.59
2017-04-14T04:12:15.143Z,14.13
2017-04-14T04:13:13.060Z,13.58
2017-04-14T04:14:10.944Z,13.80
2017-04-14T04:15:08.833Z,14.25
2017-04-14T04:16:06.671Z,14.23
2017-04-14T04:17:04.561Z,15.52
2017-04-14T04:18:02.461Z,12.80
2017-04-14T04:19:00.289Z,13.88
2017-04-14T04:19:58.204Z,15.08
2017-04-14T04:20:56.088Z,12.57
2017-04-14T04:21:53.903Z,12.47
2017-04-14T04:22:51.875Z,13.83
2017-04-14T04:23:49.723Z,14.52
2017-04-14T04:24:47.655Z,13.72
2017-04-14T04:25:45.500Z,14.25
2017-04-14T04:26:43.365Z,16.14
2017-04-14T04:27:41.248Z,15.75
2017-04-14T04:28:39.227Z,15.62
2017-04-14T04:29:37.065Z,14.53
2017-04-14T04:30:34.907Z,14.20
2017-04-14T04:31:37.352Z,15.20
2017-04-14T04:33:41.536Z,14.53
2017-04-14T04:34:39.364Z,13.08
2017-04-14T04:35:37.191Z,15.40
2017-04-14T04:36:35.002Z,15.83
2017-04-14T04:37:33.013Z,16.37
2017-04-14T04:38:30.807Z,16.40
2017-04-14T04:39:28.742Z,16.07
2017-04-14T04:40:26.621Z,13.62
2017-04-14T04:41:24.515Z,13.95
2017-04-14T04:42:22.474Z,16.04
2017-04-14T04:43:20.340Z,14.28
2017-04-14T04:44:18.248Z,16.17
2017-04-14T04:45:16.113Z,16.77
2017-04-14T04:46:13.999Z,15.80
2017-04-14T04:47:11.921Z,16.60
2017-04-14T04:48:09.748Z,15.92
2017-04-14T04:49:07.616Z,14.22
2017-04-14T04:50:05.420Z,13.07
2017-04-14T04:51:03.469Z,14.60
2017-04-14T04:52:01.296Z,13.48
2017-04-14T04:52:59.214Z,14.23
2017-04-14T04:53:57.079Z,14.93
2017-04-14T04:54:54.956Z,15.94
2017-04-14T04:55:52.840Z,14.87
2017-04-14T04:56:50.688Z,14.53
2017-04-14T04:57:48.646Z,13.00
2017-04-14T04:58:46.492Z,13.87
2017-04-14T04:59:44.417Z,12.99
2017-04-14T05:00:42.271Z,16.72
2017-04-14T05:01:40.129Z,16.10
2017-04-14T05:02:38.003Z,15.85
2017-04-14T05:03:35.832Z,15.77
2017-04-14T05:04:35.455Z,15.58
2017-04-14T05:05:34.435Z,17.73
2017-04-14T05:06:32.348Z,16.50
2017-04-14T05:07:30.172Z,18.73
2017-04-14T05:08:28.124Z,17.37
2017-04-14T05:09:26.005Z,16.21
2017-04-14T05:10:23.948Z,16.62
2017-04-14T05:11:21.760Z,15.67
2017-04-14T05:12:19.761Z,19.32
2017-04-14T05:13:17.608Z,17.69
2017-04-14T05:14:15.438Z,17.32
2017-04-14T05:15:13.372Z,17.39
2017-04-14T05:16:11.285Z,17.20
2017-04-14T05:17:09.104Z,15.83
2017-04-14T05:18:06.977Z,17.84
2017-04-14T05:19:04.852Z,16.98
2017-04-14T05:20:02.689Z,18.87
2017-04-14T05:21:00.512Z,19.27
2017-04-14T05:21:58.480Z,18.27
2017-04-14T05:22:56.364Z,19.25
2017-04-14T05:23:54.378Z,16.05
2017-04-14T05:24:52.266Z,17.15
2017-04-14T05:25:50.144Z,17.14
2017-04-14T05:26:48.044Z,18.03
2017-04-14T05:27:45.893Z,17.65
2017-04-14T05:28:43.726Z,18.63
2017-04-14T05:29:41.584Z,18.21
2017-04-14T05:30:39.507Z,19.20
2017-04-14T05:31:37.336Z,18.10
2017-04-14T05:32:35.351Z,19.56
2017-04-14T05:33:33.185Z,18.64
2017-04-14T05:34:31.089Z,19.87
2017-04-14T05:35:29.020Z,20.13
2017-04-14T05:36:26.837Z,17.15
2017-04-14T05:37:24.789Z,19.99
2017-04-14T05:38:22.647Z,20.66
2017-04-14T05:39:20.568Z,19.90
2017-04-14T05:40:18.423Z,20.48
2017-04-14T05:41:16.296Z,18.80
2017-04-14T05:42:14.267Z,20.77
2017-04-14T05:43:12.142Z,22.64
2017-04-14T05:44:12.657Z,21.41
2017-04-14T05:45:10.547Z,22.05
2017-04-14T05:46:08.378Z,23.04
2017-04-14T05:47:06.196Z,22.42
2017-04-14T05:48:04.013Z,23.63
2017-04-14T05:49:01.875Z,24.73
2017-04-14T05:49:59.735Z,22.41
2017-04-14T05:50:57.585Z,24.43
2017-04-14T05:51:55.484Z,24.63
2017-04-14T05:52:53.335Z,23.70
2017-04-14T05:53:51.185Z,23.34
2017-04-14T05:54:48.999Z,26.63
2017-04-14T05:55:46.936Z,23.19
2017-04-14T05:56:44.851Z,24.15
2017-04-14T05:57:42.742Z,23.56
2017-04-14T05:58:40.575Z,22.96
2017-04-14T05:59:38.400Z,23.87
2017-04-14T06:00:36.391Z,22.07
2017-04-14T06:01:34.249Z,23.21
2017-04-14T06:02:32.320Z,26.20
2017-04-14T06:03:30.158Z,25.44
2017-04-14T06:04:28.022Z,23.11
2017-04-14T06:05:25.851Z,22.76
2017-04-14T06:06:23.729Z,21.11
2017-04-14T06:07:21.600Z,22.45
2017-04-14T06:08:19.396Z,24.81
2017-04-14T06:09:17.393Z,25.08
2017-04-14T06:10:15.262Z,22.80
2017-04-14T06:11:13.151Z,26.67
2017-04-14T06:12:11.021Z,27.43
2017-04-14T06:13:08.848Z,24.47
2017-04-14T06:14:06.741Z,26.07
2017-04-14T06:15:04.602Z,25.33
2017-04-14T06:16:02.559Z,23.43
2017-04-14T06:17:00.407Z,25.57
2017-04-14T06:17:58.249Z,22.37
2017-04-14T06:18:56.223Z,26.13
2017-04-14T06:19:54.055Z,23.99
2017-04-14T06:20:51.964Z,23.57
2017-04-14T06:21:49.795Z,24.96
2017-04-14T06:22:47.718Z,22.93
2017-04-14T06:23:45.584Z,24.47
2017-04-14T06:24:43.433Z,25.59
2017-04-14T06:25:41.369Z,24.93
2017-04-14T06:26:39.217Z,23.69
2017-04-14T06:27:37.097Z,21.44
2017-04-14T06:28:34.927Z,26.20
2017-04-14T06:29:32.890Z,25.81
2017-04-14T06:30:30.827Z,25.13
2017-04-14T06:31:28.631Z,23.49
2017-04-14T06:32:26.540Z,24.21
2017-04-14T06:33:24.334Z,23.76
2017-04-14T06:34:22.347Z,25.39
2017-04-14T06:35:20.288Z,25.07
2017-04-14T06:36:18.280Z,26.15
2017-04-14T06:37:16.108Z,25.73
2017-04-14T06:38:13.920Z,26.60
2017-04-14T06:39:11.812Z,25.39
2017-04-14T06:40:09.734Z,25.91
2017-04-14T06:41:07.568Z,24.41
2017-04-14T06:42:05.377Z,25.26
2017-04-14T06:43:03.188Z,24.70
2017-04-14T06:44:01.019Z,26.03
2017-04-14T06:44:58.851Z,24.05
2017-04-14T06:45:56.696Z,24.98
2017-04-14T06:46:54.553Z,26.43
2017-04-14T06:47:52.373Z,24.46
2017-04-14T06:48:50.220Z,24.51
2017-04-14T06:49:48.060Z,25.96
2017-04-14T06:50:45.988Z,27.06
2017-04-14T06:51:43.872Z,24.70
2017-04-14T06:52:41.719Z,25.01
2017-04-14T06:53:39.607Z,23.81
2017-04-14T06:54:37.452Z,25.63
2017-04-14T06:55:35.294Z,25.87
2017-04-14T06:56:33.176Z,24.59
2017-04-14T06:57:31.020Z,25.13
2017-04-14T06:58:28.931Z,25.34
2017-04-14T06:59:26.829Z,23.83
2017-04-14T07:00:24.765Z,26.16
2017-04-14T07:01:22.599Z,25.47
2017-04-14T07:02:20.447Z,26.96
2017-04-14T07:03:19.088Z,25.09
2017-04-14T07:04:16.972Z,25.73
2017-04-14T07:05:14.911Z,27.57
2017-04-14T07:06:12.772Z,26.99
2017-04-14T07:07:10.586Z,25.89
2017-04-14T07:08:08.461Z,26.67
2017-04-14T07:09:06.960Z,26.21
2017-04-14T07:10:05.009Z,27.43
2017-04-14T07:11:02.872Z,25.70
2017-04-14T07:12:00.700Z,26.34
2017-04-14T07:12:58.629Z,28.10
2017-04-14T07:13:56.433Z,27.19
2017-04-14T07:14:54.341Z,24.93
2017-04-14T07:15:52.187Z,26.80
2017-04-14T07:16:50.124Z,27.53
2017-04-14T07:17:47.977Z,23.47
2017-04-14T07:18:45.842Z,26.59
2017-04-14T07:19:43.763Z,26.76
2017-04-14T07:20:41.659Z,27.09
2017-04-14T07:21:39.481Z,26.91
2017-04-14T07:22:39.800Z,26.21
2017-04-14T07:23:37.650Z,27.93
2017-04-14T07:24:35.488Z,25.90
2017-04-14T07:25:33.344Z,26.56
2017-04-14T07:26:31.178Z,25.96
2017-04-14T07:27:28.960Z,26.36
2017-04-14T07:28:26.769Z,26.30
2017-04-14T07:29:24.727Z,24.56
2017-04-14T07:30:23.716Z,25.46
2017-04-14T07:31:21.614Z,27.33
2017-04-14T07:32:20.080Z,26.76
2017-04-14T07:33:17.919Z,27.34
2017-04-14T07:34:15.748Z,27.93
2017-04-14T07:35:13.612Z,26.20
2017-04-14T07:36:11.451Z,25.93
2017-04-14T07:37:09.280Z,25.34
2017-04-14T07:38:07.135Z,25.66
2017-04-14T07:39:05.801Z,27.76
2017-04-14T07:40:03.680Z,27.40
2017-04-14T07:41:01.481Z,27.26
2017-04-14T07:41:59.470Z,25.60
2017-04-14T07:42:57.760Z,25.23
2017-04-14T07:43:55.637Z,24.56
2017-04-14T07:44:53.489Z,26.81
2017-04-14T07:45:51.362Z,25.61
2017-04-14T07:46:49.141Z,24.97
2017-04-14T07:47:47.016Z,27.50
2017-04-14T07:48:44.881Z,25.57
2017-04-14T07:49:42.739Z,24.40
2017-04-14T07:50:40.584Z,28.29
2017-04-14T07:51:38.410Z,26.21
2017-04-14T07:52:36.244Z,26.13
2017-04-14T07:53:34.235Z,26.27
2017-04-14T07:54:32.107Z,26.44
2017-04-14T07:55:30.011Z,25.54
2017-04-14T07:56:28.115Z,26.43
2017-04-14T07:57:26.144Z,26.63
2017-04-14T07:58:24.361Z,28.50
2017-04-14T07:59:22.352Z,27.00
2017-04-14T08:00:20.320Z,25.80
2017-04-14T08:01:18.205Z,25.21
2017-04-14T08:02:16.058Z,26.87
2017-04-14T08:03:13.933Z,25.80
2017-04-14T08:04:11.752Z,28.77
2017-04-14T08:05:09.621Z,27.83
2017-04-14T08:06:07.480Z,26.90
2017-04-14T08:07:05.251Z,26.51
2017-04-14T08:08:03.149Z,26.63
2017-04-14T08:09:01.000Z,26.81
2017-04-14T08:09:58.856Z,27.29
2017-04-14T08:10:56.776Z,26.80
2017-04-14T08:11:54.724Z,26.14
2017-04-14T08:12:52.994Z,27.19
2017-04-14T08:13:50.821Z,26.61
2017-04-14T08:14:48.635Z,24.49
2017-04-14T08:15:46.503Z,26.59
2017-04-14T08:16:44.485Z,27.57
2017-04-14T08:17:42.294Z,26.73
2017-04-14T08:18:40.257Z,25.47
2017-04-14T08:19:38.259Z,24.81
2017-04-14T08:20:36.316Z,24.70
2017-04-14T08:21:34.136Z,23.59
2017-04-14T08:22:32.087Z,26.30
2017-04-14T08:23:29.972Z,25.44
2017-04-14T08:24:27.845Z,24.24
2017-04-14T08:25:25.728Z,25.76
2017-04-14T08:26:23.778Z,24.50
2017-04-14T08:27:21.620Z,24.46
2017-04-14T08:28:19.491Z,23.86
2017-04-14T08:29:17.576Z,23.01
2017-04-14T08:30:15.448Z,24.41
2017-04-14T08:31:13.338Z,24.07
2017-04-14T08:32:11.164Z,23.09
2017-04-14T08:33:09.091Z,23.69
2017-04-14T08:34:08.444Z,24.94
2017-04-14T08:35:06.305Z,23.59
2017-04-14T08:36:04.239Z,24.23
2017-04-14T08:37:02.131Z,23.80
2017-04-14T08:37:59.907Z,23.97
2017-04-14T08:38:57.752Z,21.73
2017-04-14T08:39:55.641Z,23.27
2017-04-14T08:40:53.606Z,23.94
2017-04-14T08:41:51.492Z,23.23
2017-04-14T08:42:49.353Z,24.49
2017-04-14T08:43:47.190Z,22.16
2017-04-14T08:44:45.027Z,22.81
2017-04-14T08:45:42.878Z,23.03
2017-04-14T08:46:40.736Z,24.27
2017-04-14T08:47:38.568Z,21.80
2017-04-14T08:48:36.472Z,22.13
2017-04-14T08:49:34.320Z,21.71
2017-04-14T08:50:32.185Z,22.23
2017-04-14T08:51:29.968Z,21.14
2017-04-14T08:52:27.825Z,21.97
2017-04-14T08:53:25.679Z,20.47
2017-04-14T08:54:23.488Z,22.06
2017-04-14T08:55:21.454Z,22.03
2017-04-14T08:56:19.314Z,19.66
2017-04-14T08:57:17.188Z,22.26
2017-04-14T08:58:15.069Z,21.86
2017-04-14T08:59:13.292Z,22.40
2017-04-14T09:00:11.255Z,20.81
2017-04-14T09:01:09.102Z,22.61
2017-04-14T09:02:07.004Z,21.89
2017-04-14T09:03:04.849Z,21.94
2017-04-14T09:04:02.840Z,22.47
2017-04-14T09:05:00.721Z,23.09
2017-04-14T09:05:58.551Z,21.56
2017-04-14T09:06:56.440Z,22.73
2017-04-14T09:07:54.304Z,21.86
2017-04-14T09:08:52.237Z,22.47
2017-04-14T09:09:50.053Z,21.87
2017-04-14T09:10:48.031Z,19.34
2017-04-14T09:11:46.109Z,21.00
2017-04-14T09:12:43.957Z,20.69
2017-04-14T09:13:43.876Z,20.74
2017-04-14T09:14:41.720Z,21.76
2017-04-14T09:15:39.563Z,22.70
2017-04-14T09:16:37.457Z,20.57
2017-04-14T09:17:35.317Z,22.60
2017-04-14T09:18:33.292Z,20.77
2017-04-14T09:19:31.528Z,22.77
2017-04-14T09:20:29.416Z,21.39
2017-04-14T09:21:27.572Z,20.10
2017-04-14T09:22:25.429Z,20.41
2017-04-14T09:23:23.356Z,22.44
2017-04-14T09:24:21.227Z,20.00
2017-04-14T09:25:19.174Z,20.80
2017-04-14T09:26:17.080Z,24.11
2017-04-14T09:27:14.961Z,21.90
2017-04-14T09:28:12.883Z,21.00
2017-04-14T09:29:10.762Z,21.59
2017-04-14T09:30:08.700Z,21.54
2017-04-14T09:31:06.564Z,22.36
2017-04-14T09:32:04.420Z,22.00
2017-04-14T09:33:02.348Z,21.51
2017-04-14T09:34:00.212Z,22.90
2017-04-14T09:34:58.404Z,23.46
2017-04-14T09:35:56.395Z,23.39
2017-04-14T09:36:54.415Z,21.67
2017-04-14T09:37:52.265Z,22.54
2017-04-14T09:38:50.186Z,22.14
2017-04-14T09:39:48.047Z,23.47
2017-04-14T09:40:45.947Z,21.57
2017-04-14T09:41:43.800Z,21.74
2017-04-14T09:42:41.696Z,21.89
2017-04-14T09:43:39.562Z,23.10
2017-04-14T09:44:37.517Z,22.17
2017-04-14T09:45:35.468Z,22.20
2017-04-14T09:46:34.254Z,23.04
2017-04-14T09:47:32.136Z,22.20
2017-04-14T09:48:30.082Z,23.13
2017-04-14T09:49:29.122Z,24.44
2017-04-14T09:50:28.237Z,22.69
2017-04-14T09:51:26.175Z,22.69
2017-04-14T09:52:24.087Z,22.66
2017-04-14T09:53:21.967Z,23.26
2017-04-14T09:54:19.820Z,22.43
2017-04-14T09:55:17.698Z,23.01
2017-04-14T09:56:15.605Z,23.83
2017-04-14T09:57:13.464Z,22.96
2017-04-14T09:58:11.304Z,24.36
2017-04-14T09:59:09.233Z,22.87
2017-04-14T10:00:07.160Z,23.26
2017-04-14T10:01:05.120Z,22.47
2017-04-14T10:02:03.015Z,22.66
2017-04-14T10:03:00.944Z,24.39
2017-04-14T10:03:58.849Z,22.41
2017-04-14T10:04:56.700Z,22.87
2017-04-14T10:05:54.595Z,22.59
2017-04-14T10:06:52.611Z,23.60
2017-04-14T10:07:50.470Z,24.83
2017-04-14T10:08:48.334Z,22.24
2017-04-14T10:09:46.168Z,21.74
2017-04-14T10:10:43.976Z,22.49
2017-04-14T10:11:42.644Z,23.14
2017-04-14T10:12:40.850Z,22.93
2017-04-14T10:13:38.845Z,24.39
2017-04-14T10:14:36.678Z,24.37
2017-04-14T10:15:35.976Z,23.66
2017-04-14T10:16:33.841Z,24.64
2017-04-14T10:17:31.836Z,25.36
2017-04-14T10:18:29.721Z,24.63
2017-04-14T10:19:27.532Z,25.33
2017-04-14T10:20:25.376Z,23.79
2017-04-14T10:21:23.244Z,25.16
2017-04-14T10:22:21.192Z,23.19
2017-04-14T10:23:19.031Z,24.64
2017-04-14T10:24:16.852Z,22.84
2017-04-14T10:25:14.741Z,24.91
2017-04-14T10:26:12.580Z,24.27
2017-04-14T10:27:10.404Z,23.27
2017-04-14T10:28:08.285Z,24.77
2017-04-14T10:29:06.115Z,25.07
2017-04-14T10:30:04.038Z,25.00
2017-04-14T10:31:02.192Z,23.94
2017-04-14T10:32:00.013Z,23.54
2017-04-14T10:32:57.868Z,24.86
2017-04-14T10:33:55.699Z,24.10
2017-04-14T10:34:53.561Z,24.29
2017-04-14T10:35:51.430Z,24.71
2017-04-14T10:36:49.301Z,23.54
2017-04-14T10:37:47.169Z,22.99
2017-04-14T10:38:45.026Z,23.17
2017-04-14T10:39:42.866Z,21.90
2017-04-14T10:40:41.717Z,22.79
2017-04-14T10:41:40.948Z,25.31
2017-04-14T10:42:38.765Z,24.00
2017-04-14T10:43:36.737Z,24.19
2017-04-14T10:44:34.612Z,23.27
2017-04-14T10:45:32.432Z,23.14
2017-04-14T10:46:31.068Z,23.61
2017-04-14T10:47:28.891Z,22.33
2017-04-14T10:48:26.809Z,23.30
2017-04-14T10:49:24.690Z,23.34
2017-04-14T10:50:22.577Z,22.59
2017-04-14T10:51:20.431Z,23.94
2017-04-14T10:52:18.243Z,22.54
2017-04-14T10:53:16.876Z,22.26
2017-04-14T10:54:15.452Z,23.71
2017-04-14T10:55:13.392Z,22.34
2017-04-14T10:56:11.588Z,22.36
2017-04-14T10:57:09.593Z,21.36
2017-04-14T10:58:07.527Z,23.57
2017-04-14T10:59:05.441Z,22.46
2017-04-14T11:00:03.401Z,22.04
2017-04-14T11:01:01.368Z,21.93
2017-04-14T11:01:59.296Z,20.99
2017-04-14T11:02:57.180Z,22.23
2017-04-14T11:03:55.013Z,20.89
2017-04-14T11:04:52.894Z,21.27
2017-04-14T11:05:50.745Z,20.54
2017-04-14T11:06:48.682Z,19.14
2017-04-14T11:07:46.529Z,20.01
2017-04-14T11:08:44.420Z,21.06
2017-04-14T11:09:42.236Z,19.64
2017-04-14T11:10:40.066Z,19.21
2017-04-14T11:11:37.980Z,19.43
2017-04-14T11:12:35.812Z,19.21
2017-04-14T11:13:33.651Z,20.44
2017-04-14T11:14:32.453Z,20.57
2017-04-14T11:15:30.614Z,19.29
2017-04-14T11:16:28.556Z,21.14
2017-04-14T11:17:26.478Z,20.01
2017-04-14T11:18:24.467Z,19.00
2017-04-14T11:19:22.380Z,21.24
2017-04-14T11:20:20.260Z,21.24
2017-04-14T11:21:18.202Z,20.40
2017-04-14T11:22:16.081Z,19.76
2017-04-14T11:23:13.938Z,19.31
2017-04-14T11:24:11.961Z,18.60
2017-04-14T11:25:09.807Z,18.86
2017-04-14T11:26:08.170Z,19.50
2017-04-14T11:27:06.046Z,18.23
2017-04-14T11:28:03.888Z,19.71
2017-04-14T11:29:01.753Z,17.66
2017-04-14T11:29:59.611Z,20.60
2017-04-14T11:30:57.495Z,18.64
2017-04-14T11:31:55.449Z,20.96
2017-04-14T11:32:53.409Z,19.30
2017-04-14T11:33:52.495Z,19.33
2017-04-14T11:34:50.356Z,19.70
2017-04-14T11:35:48.639Z,20.70
2017-04-14T11:36:48.084Z,18.90
2017-04-14T11:37:48.452Z,18.66
2017-04-14T11:38:48.279Z,19.06
2017-04-14T11:39:47.220Z,19.34
2017-04-14T11:40:45.069Z,19.73
2017-04-14T11:41:45.234Z,19.20
2017-04-14T11:42:43.737Z,19.81
2017-04-14T11:43:41.569Z,20.84
2017-04-14T11:44:39.386Z,18.97
2017-04-14T11:45:37.228Z,18.49
2017-04-14T11:46:35.119Z,21.10
2017-04-14T11:47:33.440Z,18.29
2017-04-14T11:48:31.297Z,20.24
2017-04-14T11:49:29.144Z,19.56
2017-04-14T11:50:27.013Z,19.26
2017-04-14T11:51:24.907Z,19.11
2017-04-14T11:52:22.812Z,19.63
2017-04-14T11:53:20.644Z,22.07
2017-04-14T11:54:18.668Z,18.76
2017-04-14T11:55:16.597Z,19.50
2017-04-14T11:56:14.821Z,20.27
2017-04-14T11:57:12.726Z,20.90
2017-04-14T11:58:10.677Z,20.29
2017-04-14T11:59:08.516Z,19.66
2017-04-14T12:00:06.402Z,20.54
2017-04-14T12:01:04.304Z,20.31
2017-04-14T12:02:04.397Z,20.31
2017-04-14T12:03:02.637Z,19.79
2017-04-14T12:04:00.476Z,21.00
2017-04-14T12:04:58.413Z,21.07
2017-04-14T12:05:56.325Z,21.36
2017-04-14T12:06:54.176Z,21.76
2017-04-14T12:07:54.048Z,20.31
2017-04-14T12:08:54.175Z,21.57
2017-04-14T12:09:52.138Z,19.77
2017-04-14T12:10:49.950Z,20.21
2017-04-14T12:11:47.879Z,21.16
2017-04-14T12:12:45.907Z,19.87
2017-04-14T12:13:43.769Z,20.89
2017-04-14T12:14:41.619Z,20.13
2017-04-14T12:15:40.829Z,22.11
2017-04-14T12:16:38.668Z,22.60
2017-04-14T12:17:36.553Z,21.49
2017-04-14T12:18:37.162Z,22.63
2017-04-14T12:19:35.111Z,21.59
2017-04-14T12:20:32.993Z,21.44
2017-04-14T12:21:30.870Z,20.91
2017-04-14T12:22:28.740Z,20.99
2017-04-14T12:23:26.612Z,20.19
2017-04-14T12:24:25.120Z,19.97
2017-04-14T12:25:23.818Z,20.37
2017-04-14T12:26:21.700Z,20.99
2017-04-14T12:27:19.625Z,21.94
2017-04-14T12:28:17.573Z,18.64
2017-04-14T12:29:17.112Z,20.07
2017-04-14T12:30:14.994Z,20.21
2017-04-14T12:31:12.909Z,21.79
2017-04-14T12:32:11.018Z,20.10